Bear Lake, Michigan
Current Conditions -  °F | °C
As of 9:35 PM on Wednesday 17 Dec 2014 (Local Time) from KMBL Reporting Station
Overcast Overcast  
Wind Chill: 20°   Ceiling: 1700
Heat Index: 30°   Visibility: 10mi
Dew Point: 25°   Wind: 13mph
Humidity: 80%   Direction: 330°NNW
Pressure: 30.15"   Gusts: 16mph
Location:  44.42°N, 86.15°W
Report Text: KMBL 180235Z AUTO 33011G14KT 10SM OVC017 M01/M04 A3015 RMK AO1
Loading
Personal Weather Stations






























Interactive Weather Map New forecast layout! Learn more

10-Day Weather Forecast

Advertisements
Track Severe Weather on mobile